Castor, Louisiana
Current Conditions -  °F | °C
As of 6:16 AM on Sunday 23 Nov 2014 (Local Time) from KMNE Reporting Station
Light Rain Light Rain  
Wind Chill: 63°   Ceiling: 700
Heat Index: 63°   Visibility: 10mi
Dew Point: 63°   Wind: 6mph
Humidity: 100%   Direction: 150°SSE
Pressure: 29.63"   Gusts: NA
Location:  32.25°N, 93.17°W
Report Text: KMNE 231216Z AUTO 15005KT 10SM -RA OVC007 17/17 A2963 RMK AO2 P0001
Loading
Personal Weather Stations






























Interactive Weather Map New forecast layout! Learn more

10-Day Weather Forecast

Advertisements
Track Severe Weather on mobile